sensor_id;sensor_type;location;lat;lon;timestamp;P1;durP1;ratioP1;P2;durP2;ratioP2
22256;SDS011;11297;42.686;23.374;2023-01-01T00:01:07;270.27;;;179.07;;
22256;SDS011;11297;42.686;23.374;2023-01-01T00:03:33;298.23;;;196.80;;
22256;SDS011;11297;42.686;23.374;2023-01-01T00:06:03;314.80;;;217.10;;
22256;SDS011;11297;42.686;23.374;2023-01-01T00:08:33;289.83;;;188.47;;
22256;SDS011;11297;42.686;23.374;2023-01-01T00:11:03;278.37;;;183.47;;
22256;SDS011;11297;42.686;23.374;2023-01-01T00:13:29;274.07;;;177.90;;
22256;SDS011;11297;42.686;23.374;2023-01-01T00:15:54;276.63;;;187.03;;
22256;SDS011;11297;42.686;23.374;2023-01-01T00:18:20;348.07;;;240.00;;
22256;SDS011;11297;42.686;23.374;2023-01-01T00:20:45;421.13;;;289.83;;
22256;SDS011;11297;42.686;23.374;2023-01-01T00:23:10;429.17;;;297.63;;
22256;SDS011;11297;42.686;23.374;2023-01-01T00:25:38;446.30;;;303.30;;
22256;SDS011;11297;42.686;23.374;2023-01-01T00:28:04;443.23;;;301.17;;
22256;SDS011;11297;42.686;23.374;2023-01-01T00:30:30;393.90;;;269.27;;
22256;SDS011;11297;42.686;23.374;2023-01-01T00:32:55;425.03;;;287.13;;
22256;SDS011;11297;42.686;23.374;2023-01-01T00:35:21;411.60;;;278.23;;
22256;SDS011;11297;42.686;23.374;2023-01-01T00:37:46;378.13;;;255.50;;
22256;SDS011;11297;42.686;23.374;2023-01-01T00:40:11;352.10;;;243.73;;
22256;SDS011;11297;42.686;23.374;2023-01-01T00:42:37;351.93;;;233.70;;
22256;SDS011;11297;42.686;23.374;2023-01-01T00:45:05;379.00;;;258.93;;
22256;SDS011;11297;42.686;23.374;2023-01-01T00:47:31;372.03;;;246.07;;
22256;SDS011;11297;42.686;23.374;2023-01-01T00:49:56;343.23;;;229.30;;
22256;SDS011;11297;42.686;23.374;2023-01-01T00:52:22;348.50;;;232.43;;
22256;SDS011;11297;42.686;23.374;2023-01-01T00:54:47;378.03;;;252.00;;
22256;SDS011;11297;42.686;23.374;2023-01-01T00:57:13;380.50;;;254.87;;
22256;SDS011;11297;42.686;23.374;2023-01-01T00:59:38;381.30;;;249.90;;
22256;SDS011;11297;42.686;23.374;2023-01-01T01:02:03;391.23;;;253.77;;
22256;SDS011;11297;42.686;23.374;2023-01-01T01:04:29;369.70;;;243.07;;
22256;SDS011;11297;42.686;23.374;2023-01-01T01:06:54;357.77;;;238.93;;
22256;SDS011;11297;42.686;23.374;2023-01-01T01:09:20;361.00;;;235.80;;
22256;SDS011;11297;42.686;23.374;2023-01-01T01:11:45;364.77;;;238.00;;
22256;SDS011;11297;42.686;23.374;2023-01-01T01:14:11;359.97;;;244.73;;
22256;SDS011;11297;42.686;23.374;2023-01-01T01:16:36;351.17;;;234.90;;
22256;SDS011;11297;42.686;23.374;2023-01-01T01:19:03;352.77;;;240.43;;
22256;SDS011;11297;42.686;23.374;2023-01-01T01:21:30;361.30;;;243.00;;
22256;SDS011;11297;42.686;23.374;2023-01-01T01:23:58;376.80;;;249.20;;
22256;SDS011;11297;42.686;23.374;2023-01-01T01:26:26;377.87;;;250.67;;
22256;SDS011;11297;42.686;23.374;2023-01-01T01:28:56;383.67;;;256.70;;
22256;SDS011;11297;42.686;23.374;2023-01-01T01:31:22;416.13;;;280.03;;
22256;SDS011;11297;42.686;23.374;2023-01-01T01:33:50;375.03;;;249.83;;
22256;SDS011;11297;42.686;23.374;2023-01-01T01:36:16;395.50;;;262.73;;
22256;SDS011;11297;42.686;23.374;2023-01-01T01:38:43;362.90;;;238.87;;
22256;SDS011;11297;42.686;23.374;2023-01-01T01:41:09;363.23;;;237.33;;
22256;SDS011;11297;42.686;23.374;2023-01-01T01:46:03;376.37;;;241.97;;
22256;SDS011;11297;42.686;23.374;2023-01-01T01:48:35;340.57;;;226.43;;
22256;SDS011;11297;42.686;23.374;2023-01-01T01:51:03;339.87;;;224.70;;
22256;SDS011;11297;42.686;23.374;2023-01-01T01:53:29;312.70;;;211.37;;
22256;SDS011;11297;42.686;23.374;2023-01-01T01:56:02;353.20;;;235.97;;
22256;SDS011;11297;42.686;23.374;2023-01-01T01:58:31;323.40;;;214.27;;
22256;SDS011;11297;42.686;23.374;2023-01-01T02:00:58;329.93;;;221.27;;
22256;SDS011;11297;42.686;23.374;2023-01-01T02:06:04;302.87;;;199.37;;
22256;SDS011;11297;42.686;23.374;2023-01-01T02:08:30;292.73;;;181.33;;
22256;SDS011;11297;42.686;23.374;2023-01-01T02:10:57;238.17;;;148.73;;
22256;SDS011;11297;42.686;23.374;2023-01-01T02:13:23;192.33;;;127.03;;
22256;SDS011;11297;42.686;23.374;2023-01-01T02:18:58;117.53;;;76.23;;
22256;SDS011;11297;42.686;23.374;2023-01-01T02:26:45;70.70;;;48.10;;
22256;SDS011;11297;42.686;23.374;2023-01-01T02:29:29;85.97;;;53.70;;
22256;SDS011;11297;42.686;23.374;2023-01-01T02:34:48;103.13;;;65.40;;
22256;SDS011;11297;42.686;23.374;2023-01-01T02:37:18;128.13;;;82.10;;
22256;SDS011;11297;42.686;23.374;2023-01-01T02:39:50;126.27;;;82.17;;
22256;SDS011;11297;42.686;23.374;2023-01-01T02:42:19;132.53;;;83.07;;
22256;SDS011;11297;42.686;23.374;2023-01-01T02:44:49;121.23;;;77.93;;
22256;SDS011;11297;42.686;23.374;2023-01-01T02:47:19;117.73;;;71.83;;
22256;SDS011;11297;42.686;23.374;2023-01-01T02:49:47;143.57;;;92.97;;
22256;SDS011;11297;42.686;23.374;2023-01-01T02:55:06;186.63;;;129.00;;
22256;SDS011;11297;42.686;23.374;2023-01-01T02:58:23;170.53;;;112.90;;
22256;SDS011;11297;42.686;23.374;2023-01-01T03:06:45;246.77;;;158.00;;
22256;SDS011;11297;42.686;23.374;2023-01-01T03:10:02;325.13;;;213.97;;
22256;SDS011;11297;42.686;23.374;2023-01-01T03:12:30;375.37;;;246.63;;
22256;SDS011;11297;42.686;23.374;2023-01-01T03:17:40;416.77;;;272.13;;
22256;SDS011;11297;42.686;23.374;2023-01-01T03:20:15;423.77;;;264.67;;
22256;SDS011;11297;42.686;23.374;2023-01-01T03:22:43;347.13;;;226.47;;
22256;SDS011;11297;42.686;23.374;2023-01-01T03:25:13;318.20;;;201.23;;
22256;SDS011;11297;42.686;23.374;2023-01-01T03:27:45;342.20;;;209.10;;
22256;SDS011;11297;42.686;23.374;2023-01-01T03:30:21;331.77;;;208.63;;
22256;SDS011;11297;42.686;23.374;2023-01-01T03:32:50;342.83;;;209.30;;
22256;SDS011;11297;42.686;23.374;2023-01-01T03:38:23;270.23;;;174.07;;
22256;SDS011;11297;42.686;23.374;2023-01-01T03:40:59;258.33;;;163.43;;
22256;SDS011;11297;42.686;23.374;2023-01-01T03:43:46;256.43;;;161.97;;
22256;SDS011;11297;42.686;23.374;2023-01-01T03:46:18;211.13;;;133.90;;
22256;SDS011;11297;42.686;23.374;2023-01-01T03:48:48;227.20;;;138.50;;
22256;SDS011;11297;42.686;23.374;2023-01-01T03:51:26;265.53;;;161.10;;
22256;SDS011;11297;42.686;23.374;2023-01-01T03:53:52;314.27;;;187.77;;
22256;SDS011;11297;42.686;23.374;2023-01-01T03:56:34;268.67;;;170.40;;
22256;SDS011;11297;42.686;23.374;2023-01-01T03:59:17;314.40;;;199.70;;
22256;SDS011;11297;42.686;23.374;2023-01-01T04:01:52;299.87;;;188.33;;
22256;SDS011;11297;42.686;23.374;2023-01-01T04:04:22;268.97;;;167.37;;
22256;SDS011;11297;42.686;23.374;2023-01-01T04:06:49;284.90;;;177.30;;
22256;SDS011;11297;42.686;23.374;2023-01-01T04:09:16;285.87;;;177.93;;
22256;SDS011;11297;42.686;23.374;2023-01-01T04:11:45;218.73;;;135.13;;
22256;SDS011;11297;42.686;23.374;2023-01-01T04:14:34;238.37;;;143.07;;
22256;SDS011;11297;42.686;23.374;2023-01-01T04:17:04;261.43;;;159.93;;
22256;SDS011;11297;42.686;23.374;2023-01-01T04:19:31;275.67;;;166.83;;
22256;SDS011;11297;42.686;23.374;2023-01-01T04:21:57;276.80;;;170.60;;
22256;SDS011;11297;42.686;23.374;2023-01-01T04:24:22;247.57;;;147.47;;
22256;SDS011;11297;42.686;23.374;2023-01-01T04:26:48;263.87;;;166.43;;
22256;SDS011;11297;42.686;23.374;2023-01-01T04:29:14;197.97;;;125.20;;
22256;SDS011;11297;42.686;23.374;2023-01-01T04:31:40;221.63;;;139.40;;
22256;SDS011;11297;42.686;23.374;2023-01-01T04:34:05;289.23;;;171.80;;
22256;SDS011;11297;42.686;23.374;2023-01-01T04:36:31;129.30;;;81.20;;
22256;SDS011;11297;42.686;23.374;2023-01-01T04:38:57;66.60;;;46.43;;
22256;SDS011;11297;42.686;23.374;2023-01-01T04:41:23;72.63;;;48.93;;
22256;SDS011;11297;42.686;23.374;2023-01-01T04:43:48;64.67;;;44.23;;
22256;SDS011;11297;42.686;23.374;2023-01-01T04:46:14;64.53;;;43.67;;
22256;SDS011;11297;42.686;23.374;2023-01-01T04:48:41;65.13;;;43.03;;
22256;SDS011;11297;42.686;23.374;2023-01-01T04:51:06;53.87;;;39.77;;
22256;SDS011;11297;42.686;23.374;2023-01-01T04:53:34;77.53;;;48.07;;
22256;SDS011;11297;42.686;23.374;2023-01-01T04:56:19;82.70;;;54.40;;
22256;SDS011;11297;42.686;23.374;2023-01-01T04:58:46;80.10;;;54.70;;
22256;SDS011;11297;42.686;23.374;2023-01-01T05:01:19;83.80;;;55.53;;
22256;SDS011;11297;42.686;23.374;2023-01-01T05:03:47;82.23;;;55.93;;
22256;SDS011;11297;42.686;23.374;2023-01-01T05:06:13;98.80;;;62.27;;
22256;SDS011;11297;42.686;23.374;2023-01-01T05:08:40;86.90;;;54.03;;
22256;SDS011;11297;42.686;23.374;2023-01-01T05:11:08;100.90;;;62.43;;
22256;SDS011;11297;42.686;23.374;2023-01-01T05:13:39;94.50;;;63.00;;
22256;SDS011;11297;42.686;23.374;2023-01-01T05:16:07;100.90;;;63.23;;
22256;SDS011;11297;42.686;23.374;2023-01-01T05:18:34;99.53;;;63.77;;
22256;SDS011;11297;42.686;23.374;2023-01-01T05:21:02;99.70;;;64.83;;
22256;SDS011;11297;42.686;23.374;2023-01-01T05:23:32;83.50;;;57.07;;
22256;SDS011;11297;42.686;23.374;2023-01-01T05:25:58;94.53;;;60.63;;
22256;SDS011;11297;42.686;23.374;2023-01-01T05:28:24;79.50;;;54.90;;
22256;SDS011;11297;42.686;23.374;2023-01-01T05:30:50;72.67;;;50.07;;
22256;SDS011;11297;42.686;23.374;2023-01-01T05:33:16;68.97;;;46.67;;
22256;SDS011;11297;42.686;23.374;2023-01-01T05:35:42;66.37;;;45.87;;
22256;SDS011;11297;42.686;23.374;2023-01-01T05:38:08;66.53;;;46.60;;
22256;SDS011;11297;42.686;23.374;2023-01-01T05:40:33;70.13;;;45.63;;
22256;SDS011;11297;42.686;23.374;2023-01-01T05:42:59;71.17;;;43.70;;
22256;SDS011;11297;42.686;23.374;2023-01-01T05:45:24;61.10;;;40.67;;
22256;SDS011;11297;42.686;23.374;2023-01-01T05:47:49;57.83;;;37.03;;
22256;SDS011;11297;42.686;23.374;2023-01-01T05:50:15;50.40;;;36.17;;
22256;SDS011;11297;42.686;23.374;2023-01-01T05:52:40;56.93;;;38.60;;
22256;SDS011;11297;42.686;23.374;2023-01-01T05:55:06;60.77;;;40.07;;
22256;SDS011;11297;42.686;23.374;2023-01-01T05:57:32;53.13;;;38.53;;
22256;SDS011;11297;42.686;23.374;2023-01-01T05:59:57;64.80;;;43.40;;
22256;SDS011;11297;42.686;23.374;2023-01-01T06:02:22;55.83;;;38.37;;
22256;SDS011;11297;42.686;23.374;2023-01-01T06:04:48;60.17;;;40.27;;
22256;SDS011;11297;42.686;23.374;2023-01-01T06:07:13;63.03;;;41.23;;
22256;SDS011;11297;42.686;23.374;2023-01-01T06:09:39;83.67;;;51.87;;
22256;SDS011;11297;42.686;23.374;2023-01-01T06:12:04;79.53;;;51.67;;
22256;SDS011;11297;42.686;23.374;2023-01-01T06:14:30;86.00;;;55.70;;
22256;SDS011;11297;42.686;23.374;2023-01-01T06:16:55;90.93;;;56.03;;
22256;SDS011;11297;42.686;23.374;2023-01-01T06:19:21;108.00;;;64.30;;
22256;SDS011;11297;42.686;23.374;2023-01-01T06:21:46;113.53;;;68.67;;
22256;SDS011;11297;42.686;23.374;2023-01-01T06:24:12;106.37;;;66.03;;
22256;SDS011;11297;42.686;23.374;2023-01-01T06:26:37;122.90;;;78.40;;
22256;SDS011;11297;42.686;23.374;2023-01-01T06:29:03;111.13;;;73.53;;
22256;SDS011;11297;42.686;23.374;2023-01-01T06:31:28;126.97;;;77.50;;
22256;SDS011;11297;42.686;23.374;2023-01-01T06:33:55;93.00;;;63.97;;
22256;SDS011;11297;42.686;23.374;2023-01-01T06:36:22;86.07;;;60.00;;
22256;SDS011;11297;42.686;23.374;2023-01-01T06:38:49;94.90;;;69.03;;
22256;SDS011;11297;42.686;23.374;2023-01-01T06:41:17;90.33;;;63.40;;
22256;SDS011;11297;42.686;23.374;2023-01-01T06:43:44;88.17;;;61.33;;
22256;SDS011;11297;42.686;23.374;2023-01-01T06:46:17;86.00;;;61.43;;
22256;SDS011;11297;42.686;23.374;2023-01-01T06:48:46;93.23;;;64.73;;
22256;SDS011;11297;42.686;23.374;2023-01-01T06:51:13;95.33;;;65.40;;
22256;SDS011;11297;42.686;23.374;2023-01-01T06:53:40;96.10;;;66.67;;
22256;SDS011;11297;42.686;23.374;2023-01-01T06:56:06;100.03;;;68.83;;
22256;SDS011;11297;42.686;23.374;2023-01-01T06:58:32;103.20;;;69.20;;
22256;SDS011;11297;42.686;23.374;2023-01-01T07:03:30;107.30;;;71.83;;
22256;SDS011;11297;42.686;23.374;2023-01-01T07:05:56;98.43;;;67.63;;
22256;SDS011;11297;42.686;23.374;2023-01-01T07:08:21;96.90;;;65.90;;
22256;SDS011;11297;42.686;23.374;2023-01-01T07:10:46;98.97;;;69.23;;
22256;SDS011;11297;42.686;23.374;2023-01-01T07:13:12;71.00;;;52.20;;
22256;SDS011;11297;42.686;23.374;2023-01-01T07:15:37;56.07;;;42.83;;
22256;SDS011;11297;42.686;23.374;2023-01-01T07:18:03;81.03;;;60.33;;
22256;SDS011;11297;42.686;23.374;2023-01-01T07:20:28;81.37;;;61.83;;
22256;SDS011;11297;42.686;23.374;2023-01-01T07:22:54;81.80;;;61.27;;
22256;SDS011;11297;42.686;23.374;2023-01-01T07:25:19;88.00;;;64.17;;
22256;SDS011;11297;42.686;23.374;2023-01-01T07:27:44;91.03;;;71.87;;
22256;SDS011;11297;42.686;23.374;2023-01-01T07:30:10;105.40;;;82.37;;
22256;SDS011;11297;42.686;23.374;2023-01-01T07:32:35;121.37;;;89.43;;
22256;SDS011;11297;42.686;23.374;2023-01-01T07:35:00;126.77;;;95.57;;
22256;SDS011;11297;42.686;23.374;2023-01-01T07:37:26;142.07;;;113.30;;
22256;SDS011;11297;42.686;23.374;2023-01-01T07:39:51;149.07;;;118.77;;
22256;SDS011;11297;42.686;23.374;2023-01-01T07:42:17;151.20;;;116.10;;
22256;SDS011;11297;42.686;23.374;2023-01-01T07:44:43;112.83;;;89.30;;
22256;SDS011;11297;42.686;23.374;2023-01-01T07:47:14;90.00;;;72.57;;
22256;SDS011;11297;42.686;23.374;2023-01-01T07:49:45;78.73;;;68.07;;
22256;SDS011;11297;42.686;23.374;2023-01-01T07:52:10;87.40;;;68.97;;
22256;SDS011;11297;42.686;23.374;2023-01-01T07:54:36;69.13;;;55.63;;
22256;SDS011;11297;42.686;23.374;2023-01-01T07:57:01;67.70;;;54.13;;
22256;SDS011;11297;42.686;23.374;2023-01-01T07:59:26;61.73;;;51.00;;
22256;SDS011;11297;42.686;23.374;2023-01-01T08:01:52;65.13;;;54.37;;
22256;SDS011;11297;42.686;23.374;2023-01-01T08:04:17;67.03;;;53.93;;
22256;SDS011;11297;42.686;23.374;2023-01-01T08:06:43;69.40;;;54.40;;
22256;SDS011;11297;42.686;23.374;2023-01-01T08:09:08;66.70;;;53.63;;
22256;SDS011;11297;42.686;23.374;2023-01-01T08:11:34;62.27;;;52.57;;
22256;SDS011;11297;42.686;23.374;2023-01-01T08:13:59;66.43;;;53.17;;
22256;SDS011;11297;42.686;23.374;2023-01-01T08:16:24;60.60;;;50.07;;
22256;SDS011;11297;42.686;23.374;2023-01-01T08:18:50;54.13;;;45.27;;
22256;SDS011;11297;42.686;23.374;2023-01-01T08:21:15;63.47;;;52.03;;
22256;SDS011;11297;42.686;23.374;2023-01-01T08:23:41;69.87;;;57.30;;
22256;SDS011;11297;42.686;23.374;2023-01-01T08:26:06;67.63;;;55.90;;
22256;SDS011;11297;42.686;23.374;2023-01-01T08:28:31;69.63;;;58.40;;
22256;SDS011;11297;42.686;23.374;2023-01-01T08:30:57;62.10;;;51.47;;
22256;SDS011;11297;42.686;23.374;2023-01-01T08:33:23;58.93;;;49.23;;
22256;SDS011;11297;42.686;23.374;2023-01-01T08:35:50;40.80;;;34.43;;
22256;SDS011;11297;42.686;23.374;2023-01-01T08:38:15;39.67;;;33.30;;
22256;SDS011;11297;42.686;23.374;2023-01-01T08:40:41;46.17;;;34.17;;
22256;SDS011;11297;42.686;23.374;2023-01-01T08:43:06;48.73;;;36.07;;
22256;SDS011;11297;42.686;23.374;2023-01-01T08:45:31;43.67;;;36.70;;
22256;SDS011;11297;42.686;23.374;2023-01-01T08:47:57;53.60;;;45.80;;
22256;SDS011;11297;42.686;23.374;2023-01-01T08:50:23;50.70;;;45.20;;
22256;SDS011;11297;42.686;23.374;2023-01-01T08:52:48;54.87;;;46.63;;
22256;SDS011;11297;42.686;23.374;2023-01-01T08:55:13;46.93;;;41.50;;
22256;SDS011;11297;42.686;23.374;2023-01-01T08:57:39;55.07;;;47.23;;
22256;SDS011;11297;42.686;23.374;2023-01-01T09:00:04;57.67;;;49.33;;
22256;SDS011;11297;42.686;23.374;2023-01-01T09:02:33;64.43;;;52.27;;
22256;SDS011;11297;42.686;23.374;2023-01-01T09:04:58;70.33;;;53.37;;
22256;SDS011;11297;42.686;23.374;2023-01-01T09:07:23;62.70;;;51.63;;
22256;SDS011;11297;42.686;23.374;2023-01-01T09:09:49;62.43;;;49.60;;
22256;SDS011;11297;42.686;23.374;2023-01-01T09:12:15;68.37;;;51.53;;
22256;SDS011;11297;42.686;23.374;2023-01-01T09:14:41;62.20;;;50.20;;
22256;SDS011;11297;42.686;23.374;2023-01-01T09:17:06;60.63;;;50.57;;
22256;SDS011;11297;42.686;23.374;2023-01-01T09:19:32;64.53;;;50.30;;
22256;SDS011;11297;42.686;23.374;2023-01-01T09:21:57;59.93;;;49.07;;
22256;SDS011;11297;42.686;23.374;2023-01-01T09:24:23;63.40;;;51.57;;
22256;SDS011;11297;42.686;23.374;2023-01-01T09:26:48;64.50;;;51.73;;
22256;SDS011;11297;42.686;23.374;2023-01-01T09:29:16;68.07;;;55.07;;
22256;SDS011;11297;42.686;23.374;2023-01-01T09:31:44;66.73;;;53.13;;
22256;SDS011;11297;42.686;23.374;2023-01-01T09:34:10;66.53;;;53.97;;
22256;SDS011;11297;42.686;23.374;2023-01-01T09:36:35;65.23;;;52.70;;
22256;SDS011;11297;42.686;23.374;2023-01-01T09:39:01;67.00;;;54.73;;
22256;SDS011;11297;42.686;23.374;2023-01-01T09:44:02;68.43;;;56.73;;
22256;SDS011;11297;42.686;23.374;2023-01-01T09:46:30;72.13;;;56.23;;
22256;SDS011;11297;42.686;23.374;2023-01-01T09:48:57;66.37;;;54.50;;
22256;SDS011;11297;42.686;23.374;2023-01-01T09:51:26;63.83;;;53.17;;
22256;SDS011;11297;42.686;23.374;2023-01-01T09:56:30;55.30;;;45.37;;
22256;SDS011;11297;42.686;23.374;2023-01-01T09:59:00;62.30;;;50.40;;
22256;SDS011;11297;42.686;23.374;2023-01-01T10:04:04;56.77;;;47.77;;
22256;SDS011;11297;42.686;23.374;2023-01-01T10:06:39;56.97;;;49.30;;
22256;SDS011;11297;42.686;23.374;2023-01-01T10:14:25;62.23;;;51.67;;
22256;SDS011;11297;42.686;23.374;2023-01-01T10:16:59;58.83;;;50.03;;
22256;SDS011;11297;42.686;23.374;2023-01-01T10:19:37;66.77;;;53.97;;
22256;SDS011;11297;42.686;23.374;2023-01-01T10:22:50;58.90;;;49.90;;
22256;SDS011;11297;42.686;23.374;2023-01-01T10:27:34;60.47;;;50.50;;
22256;SDS011;11297;42.686;23.374;2023-01-01T10:30:26;56.30;;;45.77;;
22256;SDS011;11297;42.686;23.374;2023-01-01T10:32:56;52.60;;;43.80;;
22256;SDS011;11297;42.686;23.374;2023-01-01T10:35:32;58.40;;;48.00;;
22256;SDS011;11297;42.686;23.374;2023-01-01T10:38:00;58.17;;;46.53;;
22256;SDS011;11297;42.686;23.374;2023-01-01T10:40:28;62.80;;;51.10;;
22256;SDS011;11297;42.686;23.374;2023-01-01T10:42:55;59.03;;;47.77;;
22256;SDS011;11297;42.686;23.374;2023-01-01T10:45:45;58.67;;;48.33;;
22256;SDS011;11297;42.686;23.374;2023-01-01T10:50:52;62.57;;;46.70;;
22256;SDS011;11297;42.686;23.374;2023-01-01T10:53:26;52.47;;;43.97;;
22256;SDS011;11297;42.686;23.374;2023-01-01T11:01:31;54.57;;;43.63;;
22256;SDS011;11297;42.686;23.374;2023-01-01T11:06:43;39.80;;;32.10;;
22256;SDS011;11297;42.686;23.374;2023-01-01T11:09:26;42.70;;;35.30;;
22256;SDS011;11297;42.686;23.374;2023-01-01T11:12:02;40.20;;;33.60;;
22256;SDS011;11297;42.686;23.374;2023-01-01T11:14:40;44.37;;;34.57;;
22256;SDS011;11297;42.686;23.374;2023-01-01T11:17:19;39.43;;;32.77;;
22256;SDS011;11297;42.686;23.374;2023-01-01T11:19:47;38.07;;;33.67;;
22256;SDS011;11297;42.686;23.374;2023-01-01T11:25:29;47.80;;;38.13;;
22256;SDS011;11297;42.686;23.374;2023-01-01T11:30:40;52.20;;;43.30;;
22256;SDS011;11297;42.686;23.374;2023-01-01T11:33:12;52.23;;;42.80;;
22256;SDS011;11297;42.686;23.374;2023-01-01T11:35:52;46.60;;;39.07;;
22256;SDS011;11297;42.686;23.374;2023-01-01T11:38:19;39.97;;;34.63;;
22256;SDS011;11297;42.686;23.374;2023-01-01T11:40:51;41.63;;;33.70;;
22256;SDS011;11297;42.686;23.374;2023-01-01T11:43:22;46.93;;;36.80;;
22256;SDS011;11297;42.686;23.374;2023-01-01T11:45:50;44.23;;;37.67;;
22256;SDS011;11297;42.686;23.374;2023-01-01T11:48:29;44.97;;;36.50;;
22256;SDS011;11297;42.686;23.374;2023-01-01T11:50:57;43.70;;;36.07;;
22256;SDS011;11297;42.686;23.374;2023-01-01T11:55:56;42.33;;;34.30;;
22256;SDS011;11297;42.686;23.374;2023-01-01T12:03:51;36.90;;;31.80;;
22256;SDS011;11297;42.686;23.374;2023-01-01T12:08:57;37.37;;;31.47;;
22256;SDS011;11297;42.686;23.374;2023-01-01T12:11:32;37.00;;;31.97;;
22256;SDS011;11297;42.686;23.374;2023-01-01T12:14:05;33.27;;;28.53;;
22256;SDS011;11297;42.686;23.374;2023-01-01T12:19:08;34.23;;;28.80;;
22256;SDS011;11297;42.686;23.374;2023-01-01T12:21:39;34.63;;;29.23;;
22256;SDS011;11297;42.686;23.374;2023-01-01T12:24:11;38.47;;;31.80;;
22256;SDS011;11297;42.686;23.374;2023-01-01T12:29:38;34.70;;;28.77;;
22256;SDS011;11297;42.686;23.374;2023-01-01T12:40:29;34.90;;;28.27;;
22256;SDS011;11297;42.686;23.374;2023-01-01T12:43:07;36.30;;;29.30;;
22256;SDS011;11297;42.686;23.374;2023-01-01T12:54:34;40.03;;;31.07;;
22256;SDS011;11297;42.686;23.374;2023-01-01T12:57:13;34.23;;;29.10;;
22256;SDS011;11297;42.686;23.374;2023-01-01T12:59:54;38.57;;;30.23;;
22256;SDS011;11297;42.686;23.374;2023-01-01T13:02:22;42.43;;;33.33;;
22256;SDS011;11297;42.686;23.374;2023-01-01T13:04:53;36.80;;;28.33;;
22256;SDS011;11297;42.686;23.374;2023-01-01T13:07:26;38.93;;;30.97;;
22256;SDS011;11297;42.686;23.374;2023-01-01T13:10:04;39.73;;;30.87;;
22256;SDS011;11297;42.686;23.374;2023-01-01T13:12:42;39.10;;;30.77;;
22256;SDS011;11297;42.686;23.374;2023-01-01T13:20:44;36.50;;;30.40;;
22256;SDS011;11297;42.686;23.374;2023-01-01T13:45:03;35.27;;;29.33;;
22256;SDS011;11297;42.686;23.374;2023-01-01T13:48:02;36.57;;;29.40;;
22256;SDS011;11297;42.686;23.374;2023-01-01T14:08:30;32.93;;;27.83;;
22256;SDS011;11297;42.686;23.374;2023-01-01T14:11:01;39.17;;;29.90;;
22256;SDS011;11297;42.686;23.374;2023-01-01T14:13:29;41.33;;;31.10;;
22256;SDS011;11297;42.686;23.374;2023-01-01T14:16:03;39.50;;;31.73;;
22256;SDS011;11297;42.686;23.374;2023-01-01T14:21:00;32.53;;;27.40;;
22256;SDS011;11297;42.686;23.374;2023-01-01T14:23:30;30.10;;;25.93;;
22256;SDS011;11297;42.686;23.374;2023-01-01T14:25:59;25.93;;;21.60;;
22256;SDS011;11297;42.686;23.374;2023-01-01T14:28:29;27.13;;;21.87;;
22256;SDS011;11297;42.686;23.374;2023-01-01T14:30:57;25.13;;;22.43;;
22256;SDS011;11297;42.686;23.374;2023-01-01T14:33:26;27.10;;;22.23;;
22256;SDS011;11297;42.686;23.374;2023-01-01T14:35:53;24.97;;;21.70;;
22256;SDS011;11297;42.686;23.374;2023-01-01T14:38:27;28.10;;;21.43;;
22256;SDS011;11297;42.686;23.374;2023-01-01T14:41:05;28.13;;;22.20;;
22256;SDS011;11297;42.686;23.374;2023-01-01T14:43:34;24.93;;;21.23;;
22256;SDS011;11297;42.686;23.374;2023-01-01T14:46:00;24.63;;;20.97;;
22256;SDS011;11297;42.686;23.374;2023-01-01T14:48:26;67.53;;;51.73;;
22256;SDS011;11297;42.686;23.374;2023-01-01T14:50:55;100.90;;;70.23;;
22256;SDS011;11297;42.686;23.374;2023-01-01T14:53:22;63.57;;;47.63;;
22256;SDS011;11297;42.686;23.374;2023-01-01T14:55:54;65.23;;;49.43;;
22256;SDS011;11297;42.686;23.374;2023-01-01T14:58:21;72.53;;;52.47;;
22256;SDS011;11297;42.686;23.374;2023-01-01T15:00:49;48.00;;;39.63;;
22256;SDS011;11297;42.686;23.374;2023-01-01T15:03:19;35.20;;;28.20;;
22256;SDS011;11297;42.686;23.374;2023-01-01T15:05:59;30.03;;;23.20;;
22256;SDS011;11297;42.686;23.374;2023-01-01T15:08:26;27.40;;;19.57;;
22256;SDS011;11297;42.686;23.374;2023-01-01T15:10:57;26.23;;;20.87;;
22256;SDS011;11297;42.686;23.374;2023-01-01T15:13:29;23.87;;;19.67;;
22256;SDS011;11297;42.686;23.374;2023-01-01T15:16:14;30.83;;;22.50;;
22256;SDS011;11297;42.686;23.374;2023-01-01T15:18:45;33.80;;;23.53;;
22256;SDS011;11297;42.686;23.374;2023-01-01T15:21:13;28.07;;;23.37;;
22256;SDS011;11297;42.686;23.374;2023-01-01T15:23:47;33.03;;;23.90;;
22256;SDS011;11297;42.686;23.374;2023-01-01T15:26:26;30.90;;;24.07;;
22256;SDS011;11297;42.686;23.374;2023-01-01T15:28:57;35.10;;;24.13;;
22256;SDS011;11297;42.686;23.374;2023-01-01T15:31:32;40.40;;;31.07;;
22256;SDS011;11297;42.686;23.374;2023-01-01T15:34:00;55.20;;;44.33;;
22256;SDS011;11297;42.686;23.374;2023-01-01T15:36:25;51.10;;;42.60;;
22256;SDS011;11297;42.686;23.374;2023-01-01T15:38:51;48.30;;;38.10;;
22256;SDS011;11297;42.686;23.374;2023-01-01T15:41:23;33.43;;;26.00;;
22256;SDS011;11297;42.686;23.374;2023-01-01T15:44:13;37.60;;;30.20;;
22256;SDS011;11297;42.686;23.374;2023-01-01T15:46:46;40.33;;;29.93;;
22256;SDS011;11297;42.686;23.374;2023-01-01T15:49:26;38.33;;;30.57;;
22256;SDS011;11297;42.686;23.374;2023-01-01T15:51:54;39.67;;;30.43;;
22256;SDS011;11297;42.686;23.374;2023-01-01T15:54:23;44.97;;;34.47;;
22256;SDS011;11297;42.686;23.374;2023-01-01T15:56:50;42.20;;;32.87;;
22256;SDS011;11297;42.686;23.374;2023-01-01T15:59:19;41.53;;;32.37;;
22256;SDS011;11297;42.686;23.374;2023-01-01T16:01:51;39.23;;;30.80;;
22256;SDS011;11297;42.686;23.374;2023-01-01T16:04:34;36.90;;;30.50;;
22256;SDS011;11297;42.686;23.374;2023-01-01T16:07:00;42.90;;;33.20;;
22256;SDS011;11297;42.686;23.374;2023-01-01T16:09:26;43.67;;;33.70;;
22256;SDS011;11297;42.686;23.374;2023-01-01T16:11:52;39.33;;;31.33;;
22256;SDS011;11297;42.686;23.374;2023-01-01T16:14:19;39.93;;;31.17;;
22256;SDS011;11297;42.686;23.374;2023-01-01T16:16:49;38.00;;;30.20;;
22256;SDS011;11297;42.686;23.374;2023-01-01T16:19:21;37.03;;;28.70;;
22256;SDS011;11297;42.686;23.374;2023-01-01T16:21:47;37.47;;;27.57;;
22256;SDS011;11297;42.686;23.374;2023-01-01T16:24:13;36.97;;;29.57;;
22256;SDS011;11297;42.686;23.374;2023-01-01T16:26:40;37.50;;;28.30;;
22256;SDS011;11297;42.686;23.374;2023-01-01T16:29:09;36.17;;;27.83;;
22256;SDS011;11297;42.686;23.374;2023-01-01T16:31:38;44.03;;;31.00;;
22256;SDS011;11297;42.686;23.374;2023-01-01T16:34:09;40.83;;;31.70;;
22256;SDS011;11297;42.686;23.374;2023-01-01T16:36:37;39.67;;;30.07;;
22256;SDS011;11297;42.686;23.374;2023-01-01T16:39:02;34.67;;;25.27;;